Cabernet Sauvignon Commodore — WDB3227 — position and weather

sailwx.info

Track history (hours):
 
Tides and Currents Weather Stations Pressure Air Temp Water Temp Dewpoint Dewpoint Depression Visibility Wind Speed Wind Dir Waves Ship Positions

Cabernet Sauvignon Commodore

Owner: Commodore Dining Cruises, INC., Alameda, CA. More information available from US FCC via Universal Licensing System and Coast Guard Vessel Documentation Center.

Last reported at 2017-Oct-15 04:48 UTC. Time now 2017-Oct-17 04:15 UTC.
Position N 37°48' W 122°17'.

Length 30 m; draft 2 m.

Type: Passenger vessel. MMSI: 366884810.

Date/timePositionNaut miles runAvg speedWind from/ knotsBaromVisibWave heightAir tempDewpointWater temp
2017-Oct-15 04:48N 37°48' W 122°17'0 1.5
2017-Oct-15 04:30N 37°48' W 122°17'2 4.7
2017-Oct-15 04:00N 37°48' W 122°20'3 5.0
2017-Oct-15 03:30N 37°48' W 122°23'3 6.5
2017-Oct-15 03:00N 37°50' W 122°27'1 2.3
2017-Oct-15 02:31N 37°49' W 122°28'3 6.4
2017-Oct-15 02:00N 37°48' W 122°24'3 5.9
2017-Oct-15 01:30N 37°48' W 122°20'3 5.6
2017-Oct-15 01:00N 37°47' W 122°17'0 0.0
2017-Oct-15 00:30N 37°47' W 122°17'0 0.0
2017-Oct-15 00:00N 37°47' W 122°17'0 0.0
2017-Oct-13 23:30N 37°48' W 122°17'3 6.1
2017-Oct-13 23:01N 37°48' W 122°20'3 5.1
2017-Oct-13 22:31N 37°48' W 122°24'1 1.4
2017-Oct-13 22:01N 37°48' W 122°23'1 2.0
2017-Oct-13 21:31N 37°47' W 122°23'2 3.3
2017-Oct-13 21:00N 37°48' W 122°24'3 5.1
2017-Oct-13 20:30N 37°50' W 122°26'1 1.7
2017-Oct-13 20:00N 37°49' W 122°26'2 4.8
2017-Oct-13 19:30N 37°48' W 122°24'0 0.0
2017-Oct-13 19:00N 37°48' W 122°24'3 6.6
2017-Oct-13 18:30N 37°48' W 122°19'2 4.4
2017-Oct-13 18:01N 37°47' W 122°17'  
2017-Oct-08 23:56N 37°48' W 122°17'2 4.2
2017-Oct-08 23:30N 37°48' W 122°19'3 6.2
2017-Oct-08 23:00N 37°48' W 122°23'2 3.1
2017-Oct-08 22:30N 37°49' W 122°24'0 0.0
2017-Oct-08 22:00N 37°49' W 122°24'0 0.3
2017-Oct-08 21:30N 37°49' W 122°24'2 3.3
2017-Oct-08 21:00N 37°48' W 122°23'3 6.7
2017-Oct-08 20:30N 37°48' W 122°19'2 3.5
2017-Oct-08 20:00N 37°47' W 122°17'0 0.0
2017-Oct-08 19:30N 37°47' W 122°17'0 0.0
2017-Oct-08 19:00N 37°47' W 122°17'0 0.0
2017-Oct-08 00:04N 37°48' W 122°17'0 0.0
2017-Oct-08 00:00N 37°48' W 122°17'2 3.1
2017-Oct-07 23:30N 37°48' W 122°19'3 6.4
2017-Oct-07 23:00N 37°48' W 122°23'2 3.4
2017-Oct-07 22:30N 37°49' W 122°24'0 0.5
2017-Oct-07 22:00N 37°49' W 122°24'0 0.3
2017-Oct-07 21:30N 37°49' W 122°24'1 2.9
2017-Oct-07 21:01N 37°48' W 122°23'4 7.0
2017-Oct-07 20:30N 37°48' W 122°19'2 3.4
2017-Oct-07 20:00N 37°47' W 122°17'0 0.0
2017-Oct-07 19:30N 37°47' W 122°17'0 0.0
2017-Oct-07 19:00N 37°47' W 122°17'0 0.0
2017-Oct-07 02:19N 37°48' W 122°17'0 0.5
2017-Oct-07 02:00N 37°48' W 122°17'3 6.9
2017-Oct-07 01:31N 37°48' W 122°21'2 4.0
2017-Oct-07 01:00N 37°48' W 122°24'0 0.7
2017-Oct-07 00:30N 37°48' W 122°23'1 2.9
2017-Oct-07 00:00N 37°49' W 122°25'2 3.5
2017-Oct-06 23:30N 37°49' W 122°27'1 2.8
2017-Oct-06 23:00N 37°49' W 122°25'1 1.3
2017-Oct-06 22:30N 37°49' W 122°24'0 0.9
2017-Oct-06 22:00N 37°50' W 122°24'1 1.0
2017-Oct-06 21:30N 37°50' W 122°25'2 4.6
2017-Oct-06 21:00N 37°48' W 122°24'0 0.0
2017-Oct-06 20:30N 37°48' W 122°24'4 7.3
2017-Oct-06 20:00N 37°48' W 122°19'2 3.7
2017-Oct-06 19:30N 37°47' W 122°17'  
Track history (hours):
 
Tides and Currents Weather Stations Pressure Air Temp Water Temp Dewpoint Dewpoint Depression Visibility Wind Speed Wind Dir Waves Ship Positions

Cabernet Sauvignon Commodore

Owner: Commodore Dining Cruises, INC., Alameda, CA. More information available from US FCC via Universal Licensing System and Coast Guard Vessel Documentation Center.

Last reported at 2017-Oct-15 04:48 UTC. Time now 2017-Oct-17 04:15 UTC.
Position N 37°48' W 122°17'.

Length 30 m; draft 2 m.

Type: Passenger vessel. MMSI: 366884810.

Date/timePositionNaut miles runAvg speedWind from/ knotsBaromVisibWave heightAir tempDewpointWater temp
2017-Oct-15 04:48N 37°48' W 122°17'0 1.5
2017-Oct-15 04:30N 37°48' W 122°17'2 4.7
2017-Oct-15 04:00N 37°48' W 122°20'3 5.0
2017-Oct-15 03:30N 37°48' W 122°23'3 6.5
2017-Oct-15 03:00N 37°50' W 122°27'1 2.3
2017-Oct-15 02:31N 37°49' W 122°28'3 6.4
2017-Oct-15 02:00N 37°48' W 122°24'3 5.9
2017-Oct-15 01:30N 37°48' W 122°20'3 5.6
2017-Oct-15 01:00N 37°47' W 122°17'0 0.0
2017-Oct-15 00:30N 37°47' W 122°17'0 0.0
2017-Oct-15 00:00N 37°47' W 122°17'0 0.0
2017-Oct-13 23:30N 37°48' W 122°17'3 6.1
2017-Oct-13 23:01N 37°48' W 122°20'3 5.1
2017-Oct-13 22:31N 37°48' W 122°24'1 1.4
2017-Oct-13 22:01N 37°48' W 122°23'1 2.0
2017-Oct-13 21:31N 37°47' W 122°23'2 3.3
2017-Oct-13 21:00N 37°48' W 122°24'3 5.1
2017-Oct-13 20:30N 37°50' W 122°26'1 1.7
2017-Oct-13 20:00N 37°49' W 122°26'2 4.8
2017-Oct-13 19:30N 37°48' W 122°24'0 0.0
2017-Oct-13 19:00N 37°48' W 122°24'3 6.6
2017-Oct-13 18:30N 37°48' W 122°19'2 4.4
2017-Oct-13 18:01N 37°47' W 122°17'  
2017-Oct-08 23:56N 37°48' W 122°17'2 4.2
2017-Oct-08 23:30N 37°48' W 122°19'3 6.2
2017-Oct-08 23:00N 37°48' W 122°23'2 3.1
2017-Oct-08 22:30N 37°49' W 122°24'0 0.0
2017-Oct-08 22:00N 37°49' W 122°24'0 0.3
2017-Oct-08 21:30N 37°49' W 122°24'2 3.3
2017-Oct-08 21:00N 37°48' W 122°23'3 6.7
2017-Oct-08 20:30N 37°48' W 122°19'2 3.5
2017-Oct-08 20:00N 37°47' W 122°17'0 0.0
2017-Oct-08 19:30N 37°47' W 122°17'0 0.0
2017-Oct-08 19:00N 37°47' W 122°17'0 0.0
2017-Oct-08 00:04N 37°48' W 122°17'0 0.0
2017-Oct-08 00:00N 37°48' W 122°17'2 3.1
2017-Oct-07 23:30N 37°48' W 122°19'3 6.4
2017-Oct-07 23:00N 37°48' W 122°23'2 3.4
2017-Oct-07 22:30N 37°49' W 122°24'0 0.5
2017-Oct-07 22:00N 37°49' W 122°24'0 0.3
2017-Oct-07 21:30N 37°49' W 122°24'1 2.9
2017-Oct-07 21:01N 37°48' W 122°23'4 7.0
2017-Oct-07 20:30N 37°48' W 122°19'2 3.4
2017-Oct-07 20:00N 37°47' W 122°17'0 0.0
2017-Oct-07 19:30N 37°47' W 122°17'0 0.0
2017-Oct-07 19:00N 37°47' W 122°17'0 0.0
2017-Oct-07 02:19N 37°48' W 122°17'0 0.5
2017-Oct-07 02:00N 37°48' W 122°17'3 6.9
2017-Oct-07 01:31N 37°48' W 122°21'2 4.0
2017-Oct-07 01:00N 37°48' W 122°24'0 0.7
2017-Oct-07 00:30N 37°48' W 122°23'1 2.9
2017-Oct-07 00:00N 37°49' W 122°25'2 3.5
2017-Oct-06 23:30N 37°49' W 122°27'1 2.8
2017-Oct-06 23:00N 37°49' W 122°25'1 1.3
2017-Oct-06 22:30N 37°49' W 122°24'0 0.9
2017-Oct-06 22:00N 37°50' W 122°24'1 1.0
2017-Oct-06 21:30N 37°50' W 122°25'2 4.6
2017-Oct-06 21:00N 37°48' W 122°24'0 0.0
2017-Oct-06 20:30N 37°48' W 122°24'4 7.3
2017-Oct-06 20:00N 37°48' W 122°19'2 3.7
2017-Oct-06 19:30N 37°47' W 122°17'  

Dump ship's entire track history